Terminal Aerodrome Forecast
Issued by NWS

Home | Current Version | Previous Version | Text Only | Print | Product List | Glossary On
Versions: 1 2 3 4 5 6 7 8 9 10 11 12 13 14 15 16 17
000
FTUS44 KCRP 241700
TAFALI
TAF
KALI 241727Z 2418/2518 17010KT P6SM SCT025 BKN035
     FM242200 12011KT P6SM SCT040 BKN250
     FM250400 13004KT 5SM BR SCT008 BKN250
     FM250800 VRB04KT 1SM BR OVC004
      TEMPO 2511/2515 1/4SM FG VV001
     FM251600 10008KT P6SM SCT020 BKN035=

USA.gov is the U.S. government's official web portal to all federal, state and local government web resources and services.